createdAt,value
2019-06-20T00:00:47.324Z,20.00
2019-06-20T00:11:17.139Z,19.80
2019-06-20T00:13:46.402Z,19.80
2019-06-20T00:16:15.668Z,19.80
2019-06-20T00:18:44.941Z,19.80
2019-06-20T00:21:14.207Z,19.90
2019-06-20T00:23:43.466Z,19.90
2019-06-20T00:26:12.727Z,19.70
2019-06-20T00:28:41.988Z,19.60
2019-06-20T00:31:11.253Z,19.50
2019-06-20T00:33:40.513Z,19.40
2019-06-20T00:36:09.778Z,19.40
2019-06-20T00:38:39.046Z,19.40
2019-06-20T00:41:08.387Z,19.40
2019-06-20T00:43:37.662Z,19.40
2019-06-20T00:46:07.216Z,19.50
2019-06-20T00:48:36.492Z,19.50
2019-06-20T00:51:05.847Z,19.50
2019-06-20T00:53:35.123Z,19.50
2019-06-20T00:56:06.174Z,19.50
2019-06-20T00:58:35.441Z,19.40
2019-06-20T01:01:04.829Z,19.40
2019-06-20T01:03:34.106Z,19.40
2019-06-20T01:06:03.403Z,19.30
2019-06-20T01:08:32.722Z,19.30
2019-06-20T01:11:02.004Z,19.20
2019-06-20T01:13:33.950Z,19.20
2019-06-20T01:16:02.293Z,19.10
2019-06-20T01:18:31.562Z,19.00
2019-06-20T01:21:01.479Z,19.00
2019-06-20T01:23:30.745Z,19.00
2019-06-20T01:26:00.419Z,19.10
2019-06-20T01:28:30.003Z,19.10
2019-06-20T01:30:59.280Z,19.10
2019-06-20T01:33:28.548Z,19.10
2019-06-20T01:35:57.817Z,19.20
2019-06-20T01:38:27.095Z,19.20
2019-06-20T01:40:56.726Z,19.20
2019-06-20T01:43:26.006Z,19.20
2019-06-20T01:45:55.273Z,19.20
2019-06-20T01:48:24.809Z,19.20
2019-06-20T01:50:54.420Z,19.20
2019-06-20T01:53:23.708Z,19.20
2019-06-20T01:55:52.971Z,19.10
2019-06-20T01:58:22.536Z,19.10
2019-06-20T02:00:52.414Z,19.10
2019-06-20T02:03:21.928Z,19.10
2019-06-20T02:05:51.200Z,19.10
2019-06-20T02:08:20.629Z,19.10
2019-06-20T02:10:50.154Z,19.10
2019-06-20T02:13:19.768Z,19.10
2019-06-20T02:15:49.040Z,19.20
2019-06-20T02:18:18.391Z,19.20
2019-06-20T02:20:53.766Z,19.20
2019-06-20T02:23:24.281Z,19.20
2019-06-20T02:25:53.819Z,19.10
2019-06-20T02:28:23.895Z,19.10
2019-06-20T02:30:53.257Z,19.10
2019-06-20T02:33:22.524Z,19.00
2019-06-20T02:35:51.807Z,19.00
2019-06-20T02:38:21.094Z,19.00
2019-06-20T02:40:50.774Z,19.00
2019-06-20T02:43:20.074Z,19.00
2019-06-20T02:45:49.344Z,19.00
2019-06-20T02:48:18.627Z,18.90
2019-06-20T02:50:47.902Z,18.90
2019-06-20T02:53:17.581Z,18.90
2019-06-20T02:55:46.868Z,18.80
2019-06-20T02:58:16.153Z,18.80
2019-06-20T03:00:56.006Z,18.80
2019-06-20T03:03:25.894Z,18.80
2019-06-20T03:05:55.979Z,18.70
2019-06-20T03:08:25.678Z,18.70
2019-06-20T03:10:54.971Z,18.70
2019-06-20T03:13:24.497Z,18.70
2019-06-20T03:15:53.777Z,18.70
2019-06-20T03:18:23.396Z,18.70
2019-06-20T03:20:52.673Z,18.60
2019-06-20T03:23:21.955Z,18.60
2019-06-20T03:25:52.417Z,18.60
2019-06-20T03:28:22.023Z,18.50
2019-06-20T03:30:51.303Z,18.50
2019-06-20T03:33:20.651Z,18.50
2019-06-20T03:35:49.930Z,18.50
2019-06-20T03:38:19.544Z,18.50
2019-06-20T03:40:49.146Z,18.50
2019-06-20T03:43:18.495Z,18.50
2019-06-20T03:45:47.787Z,18.50
2019-06-20T03:48:17.355Z,18.50
2019-06-20T03:50:46.700Z,18.50
2019-06-20T03:53:15.979Z,18.60
2019-06-20T03:55:45.258Z,18.60
2019-06-20T03:58:14.548Z,18.70
2019-06-20T04:00:44.167Z,18.70
2019-06-20T04:03:13.467Z,18.70
2019-06-20T04:05:42.819Z,18.70
2019-06-20T04:08:12.477Z,18.80
2019-06-20T04:10:42.006Z,18.80
2019-06-20T04:13:11.296Z,18.80
2019-06-20T04:15:40.580Z,18.80
2019-06-20T04:18:09.872Z,18.80
2019-06-20T04:20:39.152Z,18.90
2019-06-20T04:23:08.794Z,18.90
2019-06-20T04:25:38.408Z,18.80
2019-06-20T04:28:07.682Z,18.70
2019-06-20T04:30:36.957Z,18.60
2019-06-20T04:33:06.228Z,18.60
2019-06-20T04:35:35.525Z,18.60
2019-06-20T04:38:04.795Z,18.60
2019-06-20T04:40:34.071Z,18.50
2019-06-20T04:43:03.378Z,18.50
2019-06-20T04:45:37.212Z,18.50
2019-06-20T04:48:06.481Z,18.50
2019-06-20T04:50:36.230Z,18.50
2019-06-20T04:53:05.503Z,18.60
2019-06-20T04:55:34.779Z,18.60
2019-06-20T04:58:04.830Z,18.50
2019-06-20T05:00:34.100Z,18.30
2019-06-20T05:03:03.411Z,18.30
2019-06-20T05:05:32.758Z,18.30
2019-06-20T05:08:02.034Z,18.30
2019-06-20T05:10:31.313Z,18.30
2019-06-20T05:13:00.587Z,18.30
2019-06-20T05:15:29.863Z,18.40
2019-06-20T05:17:59.131Z,18.50
2019-06-20T05:20:28.410Z,18.50
2019-06-20T05:22:57.892Z,18.50
2019-06-20T05:25:27.129Z,18.60
2019-06-20T05:27:56.408Z,18.70
2019-06-20T05:30:25.757Z,18.70
2019-06-20T05:32:55.035Z,18.70
2019-06-20T05:35:24.311Z,18.80
2019-06-20T05:37:53.590Z,18.80
2019-06-20T05:40:22.862Z,18.80
2019-06-20T05:42:52.513Z,18.80
2019-06-20T05:45:21.880Z,19.00
2019-06-20T05:47:51.146Z,19.00
2019-06-20T05:50:20.570Z,18.90
2019-06-20T05:52:49.828Z,19.00
2019-06-20T05:55:19.313Z,19.00
2019-06-20T05:57:48.668Z,19.00
2019-06-20T06:00:18.554Z,19.10
2019-06-20T06:02:47.889Z,19.20
2019-06-20T06:05:17.314Z,19.10
2019-06-20T06:07:46.661Z,19.10
2019-06-20T06:10:16.675Z,19.10
2019-06-20T06:12:46.191Z,19.10
2019-06-20T06:15:16.252Z,19.00
2019-06-20T06:17:45.838Z,19.30
2019-06-20T06:20:15.876Z,19.20
2019-06-20T06:22:45.464Z,19.20
2019-06-20T06:25:15.284Z,19.20
2019-06-20T06:27:44.549Z,19.20
2019-06-20T06:30:16.303Z,19.40
2019-06-20T06:32:45.842Z,19.60
2019-06-20T06:35:15.667Z,19.60
2019-06-20T06:37:44.925Z,19.70
2019-06-20T06:40:15.753Z,19.90
2019-06-20T06:42:45.030Z,20.00
2019-06-20T06:45:15.358Z,19.90
2019-06-20T06:47:44.648Z,20.00
2019-06-20T06:50:14.629Z,20.10
2019-06-20T06:52:43.941Z,20.20
2019-06-20T06:55:13.503Z,20.30
2019-06-20T06:57:42.855Z,20.20
2019-06-20T07:00:14.394Z,20.10
2019-06-20T07:02:44.002Z,20.10
2019-06-20T07:05:14.345Z,20.10
2019-06-20T07:07:43.943Z,20.00
2019-06-20T07:10:13.736Z,20.00
2019-06-20T07:12:43.073Z,20.10
2019-06-20T07:15:15.604Z,20.10
2019-06-20T07:17:45.234Z,20.20
2019-06-20T07:20:16.614Z,20.20
2019-06-20T07:22:45.890Z,20.20
2019-06-20T07:25:15.902Z,20.40
2019-06-20T07:27:45.430Z,20.50
2019-06-20T07:30:16.118Z,20.50
2019-06-20T07:32:45.634Z,20.70
2019-06-20T07:35:15.037Z,20.80
2019-06-20T07:37:44.318Z,20.90
2019-06-20T07:40:14.377Z,21.00
2019-06-20T07:42:43.655Z,21.00
2019-06-20T07:45:13.377Z,21.00
2019-06-20T07:47:42.725Z,20.90
2019-06-20T07:50:12.638Z,21.00
2019-06-20T07:52:42.203Z,20.90
2019-06-20T07:55:12.300Z,21.20
2019-06-20T07:57:41.591Z,21.30
2019-06-20T08:00:12.657Z,21.20
2019-06-20T08:02:42.365Z,21.30
2019-06-20T08:05:14.318Z,21.50
2019-06-20T08:07:43.640Z,21.80
2019-06-20T08:10:18.678Z,22.30
2019-06-20T08:12:47.939Z,22.30
2019-06-20T08:15:18.054Z,22.60
2019-06-20T08:17:47.599Z,22.60
2019-06-20T08:20:17.577Z,22.50
2019-06-20T08:22:47.119Z,22.80
2019-06-20T08:25:18.453Z,23.00
2019-06-20T08:27:50.940Z,23.30
2019-06-20T08:30:34.392Z,23.10
2019-06-20T08:33:10.303Z,23.30
2019-06-20T08:35:35.737Z,23.20
2019-06-20T08:38:06.067Z,23.00
2019-06-20T08:40:41.508Z,23.00
2019-06-20T08:43:10.918Z,23.30
2019-06-20T08:45:42.592Z,23.50
2019-06-20T08:48:12.412Z,23.70
2019-06-20T08:50:42.798Z,24.10
2019-06-20T08:53:12.134Z,23.90
2019-06-20T08:55:41.718Z,24.10
2019-06-20T08:58:10.996Z,24.30
2019-06-20T09:00:40.719Z,24.30
2019-06-20T09:03:09.978Z,24.20
2019-06-20T09:05:39.250Z,24.40
2019-06-20T09:08:11.386Z,24.70
2019-06-20T09:10:41.505Z,25.20
2019-06-20T09:13:12.723Z,25.40
2019-06-20T09:15:43.339Z,25.60
2019-06-20T09:18:13.265Z,25.80
2019-06-20T09:20:42.634Z,25.70
2019-06-20T09:23:12.009Z,25.70
2019-06-20T09:25:41.346Z,25.60
2019-06-20T09:28:11.090Z,25.80
2019-06-20T09:30:40.428Z,26.00
2019-06-20T09:33:09.771Z,26.30
2019-06-20T09:35:39.042Z,26.10
2019-06-20T09:38:08.498Z,26.30
2019-06-20T09:40:37.772Z,26.50
2019-06-20T09:43:07.242Z,26.80
2019-06-20T09:45:37.080Z,27.00
2019-06-20T09:48:06.370Z,26.90
2019-06-20T09:50:35.715Z,27.20
2019-06-20T09:53:05.005Z,27.30
2019-06-20T09:55:34.289Z,27.60
2019-06-20T09:58:03.853Z,27.70
2019-06-20T10:00:34.137Z,27.80
2019-06-20T10:03:03.859Z,27.70
2019-06-20T10:05:33.203Z,27.90
2019-06-20T10:08:02.473Z,28.30
2019-06-20T10:10:32.344Z,28.70
2019-06-20T10:13:01.628Z,28.90
2019-06-20T10:15:35.802Z,29.20
2019-06-20T10:18:05.098Z,29.30
2019-06-20T10:20:34.504Z,29.40
2019-06-20T10:23:03.868Z,29.30
2019-06-20T10:25:33.136Z,28.90
2019-06-20T10:28:02.738Z,28.80
2019-06-20T10:30:32.259Z,28.90
2019-06-20T10:33:01.543Z,28.70
2019-06-20T10:35:30.814Z,28.80
2019-06-20T10:38:00.447Z,28.70
2019-06-20T10:40:29.722Z,28.50
2019-06-20T10:42:58.994Z,27.70
2019-06-20T10:45:29.366Z,26.90
2019-06-20T10:47:59.198Z,26.00
2019-06-20T10:50:28.869Z,25.50
2019-06-20T10:52:58.404Z,25.60
2019-06-20T10:55:28.121Z,25.50
2019-06-20T10:57:57.384Z,25.60
2019-06-20T11:00:31.698Z,25.70
2019-06-20T11:02:59.744Z,25.50
2019-06-20T11:05:29.028Z,25.70
2019-06-20T11:07:58.302Z,25.90
2019-06-20T11:10:28.412Z,26.00
2019-06-20T11:12:57.680Z,26.30
2019-06-20T11:15:27.404Z,26.50
2019-06-20T11:17:57.177Z,26.60
2019-06-20T11:20:27.781Z,26.50
2019-06-20T11:22:57.049Z,26.30
2019-06-20T11:25:26.389Z,26.20
2019-06-20T11:27:55.662Z,25.90
2019-06-20T11:30:42.004Z,25.90
2019-06-20T11:33:00.393Z,26.00
2019-06-20T11:35:29.679Z,26.20
2019-06-20T11:37:58.951Z,26.60
2019-06-20T11:40:28.433Z,27.00
2019-06-20T11:42:57.717Z,27.30
2019-06-20T11:45:27.077Z,27.30
2019-06-20T11:47:56.350Z,27.20
2019-06-20T11:50:25.990Z,27.00
2019-06-20T11:52:55.286Z,26.80
2019-06-20T11:55:24.561Z,26.40
2019-06-20T11:57:53.842Z,26.20
2019-06-20T12:00:23.179Z,26.10
2019-06-20T12:02:52.452Z,26.30
2019-06-20T12:05:22.066Z,26.50
2019-06-20T12:07:51.367Z,26.80
2019-06-20T12:10:22.422Z,27.00
2019-06-20T12:12:51.740Z,27.30
2019-06-20T12:15:22.824Z,27.60
2019-06-20T12:17:52.466Z,27.80
2019-06-20T12:20:22.451Z,27.90
2019-06-20T12:22:51.721Z,28.00
2019-06-20T12:25:21.437Z,28.00
2019-06-20T12:27:50.951Z,27.90
2019-06-20T12:30:21.139Z,27.90
2019-06-20T12:32:50.411Z,27.80
2019-06-20T12:35:19.920Z,27.60
2019-06-20T12:37:50.065Z,27.50
2019-06-20T12:40:20.107Z,27.40
2019-06-20T12:42:49.471Z,27.40
2019-06-20T12:45:18.907Z,27.40
2019-06-20T12:47:48.172Z,27.40
2019-06-20T12:50:18.231Z,27.50
2019-06-20T12:52:49.330Z,27.30
2019-06-20T12:55:19.227Z,27.40
2019-06-20T12:57:48.745Z,27.20
2019-06-20T13:00:18.928Z,27.10
2019-06-20T13:02:49.777Z,26.90
2019-06-20T13:05:20.320Z,26.60
2019-06-20T13:07:50.308Z,26.40
2019-06-20T13:10:19.861Z,26.30
2019-06-20T13:12:49.968Z,26.00
2019-06-20T13:15:19.877Z,25.70
2019-06-20T13:17:49.539Z,25.50
2019-06-20T13:20:20.542Z,25.10
2019-06-20T13:22:50.229Z,24.30
2019-06-20T13:25:19.526Z,23.80
2019-06-20T13:27:50.550Z,23.50
2019-06-20T13:30:20.699Z,23.40
2019-06-20T13:32:49.977Z,23.40
2019-06-20T13:35:20.328Z,23.40
2019-06-20T13:37:50.142Z,23.70
2019-06-20T13:40:21.147Z,23.90
2019-06-20T13:42:50.526Z,24.20
2019-06-20T13:45:26.217Z,24.40
2019-06-20T13:47:55.837Z,24.60
2019-06-20T13:50:27.901Z,24.80
2019-06-20T13:52:57.294Z,24.90
2019-06-20T13:55:26.633Z,25.10
2019-06-20T13:57:56.221Z,25.30
2019-06-20T14:00:26.380Z,25.60
2019-06-20T14:02:55.619Z,25.80
2019-06-20T14:05:24.997Z,26.20
2019-06-20T14:07:55.969Z,26.50
2019-06-20T14:10:25.356Z,26.80
2019-06-20T14:12:54.635Z,26.80
2019-06-20T14:15:24.713Z,26.90
2019-06-20T14:17:54.304Z,26.80
2019-06-20T14:20:24.730Z,26.60
2019-06-20T14:22:54.669Z,26.50
2019-06-20T14:25:24.508Z,26.30
2019-06-20T14:27:54.227Z,26.10
2019-06-20T14:30:23.637Z,26.00
2019-06-20T14:32:54.005Z,26.00
2019-06-20T14:35:24.306Z,26.00
2019-06-20T14:37:55.374Z,26.00
2019-06-20T14:40:24.853Z,26.10
2019-06-20T14:42:54.409Z,26.40
2019-06-20T14:45:24.001Z,26.90
2019-06-20T14:47:55.094Z,27.60
2019-06-20T14:50:24.518Z,27.80
2019-06-20T14:52:54.141Z,28.10
2019-06-20T14:55:23.559Z,27.80
2019-06-20T14:57:54.653Z,27.70
2019-06-20T15:00:26.051Z,28.00
2019-06-20T15:02:58.222Z,28.20
2019-06-20T15:05:27.094Z,28.40
2019-06-20T15:07:56.806Z,28.50
2019-06-20T15:10:26.176Z,28.60
2019-06-20T15:12:56.026Z,29.20
2019-06-20T15:15:25.687Z,30.00
2019-06-20T15:17:57.413Z,31.10
2019-06-20T15:20:25.982Z,31.90
2019-06-20T15:22:56.595Z,32.50
2019-06-20T15:25:26.629Z,33.20
2019-06-20T15:27:57.260Z,33.70
2019-06-20T15:30:26.843Z,33.70
2019-06-20T15:33:07.489Z,34.00
2019-06-20T15:35:27.466Z,33.20
2019-06-20T15:37:57.740Z,32.00
2019-06-20T15:40:27.569Z,31.20
2019-06-20T15:42:58.549Z,30.50
2019-06-20T15:45:28.232Z,30.10
2019-06-20T15:47:57.558Z,29.80
2019-06-20T15:50:26.809Z,29.20
2019-06-20T15:52:56.401Z,29.10
2019-06-20T15:55:25.826Z,28.90
2019-06-20T15:57:55.394Z,28.40
2019-06-20T16:00:25.352Z,28.40
2019-06-20T16:03:08.814Z,28.40
2019-06-20T16:05:25.720Z,28.50
2019-06-20T16:07:55.268Z,28.80
2019-06-20T16:10:24.862Z,28.80
2019-06-20T16:12:54.490Z,29.10
2019-06-20T16:15:23.919Z,29.70
2019-06-20T16:17:53.345Z,30.40
2019-06-20T16:20:23.559Z,31.40
2019-06-20T16:22:52.852Z,31.50
2019-06-20T16:25:22.659Z,31.20
2019-06-20T16:27:52.207Z,30.60
2019-06-20T16:30:22.121Z,29.80
2019-06-20T16:32:51.763Z,29.20
2019-06-20T16:35:21.036Z,28.80
2019-06-20T16:37:50.316Z,28.60
2019-06-20T16:40:33.325Z,28.40
2019-06-20T16:43:02.860Z,28.30
2019-06-20T16:45:32.149Z,28.30
2019-06-20T16:48:01.724Z,29.30
2019-06-20T16:50:31.305Z,31.20
2019-06-20T16:53:01.318Z,32.90
2019-06-20T16:55:30.676Z,34.00
2019-06-20T16:58:00.235Z,35.20
2019-06-20T17:00:29.952Z,36.10
2019-06-20T17:02:59.233Z,36.50
2019-06-20T17:05:28.885Z,36.70
2019-06-20T17:07:58.470Z,36.80
2019-06-20T17:10:28.078Z,37.10
2019-06-20T17:12:57.634Z,37.30
2019-06-20T17:15:27.176Z,36.90
2019-06-20T17:17:57.718Z,35.90
2019-06-20T17:20:27.527Z,35.80
2019-06-20T17:22:57.131Z,35.60
2019-06-20T17:25:26.852Z,34.80
2019-06-20T17:27:56.128Z,34.40
2019-06-20T17:30:25.611Z,33.90
2019-06-20T17:32:55.147Z,33.50
2019-06-20T17:35:25.125Z,32.90
2019-06-20T17:37:54.391Z,31.40
2019-06-20T17:40:24.194Z,30.70
2019-06-20T17:42:53.531Z,30.00
2019-06-20T17:45:24.685Z,29.70
2019-06-20T17:47:54.206Z,29.30
2019-06-20T17:50:26.004Z,29.20
2019-06-20T17:52:55.588Z,29.30
2019-06-20T17:55:24.926Z,29.40
2019-06-20T17:57:54.211Z,29.50
2019-06-20T18:00:27.168Z,29.60
2019-06-20T18:02:56.470Z,29.70
2019-06-20T18:05:26.045Z,29.70
2019-06-20T18:07:55.704Z,29.50
2019-06-20T18:10:26.145Z,29.30
2019-06-20T18:12:55.417Z,29.20
2019-06-20T18:15:26.099Z,29.10
2019-06-20T18:17:55.696Z,29.10
2019-06-20T18:20:25.128Z,29.20
2019-06-20T18:22:54.781Z,29.10
2019-06-20T18:25:24.144Z,29.20
2019-06-20T18:27:53.708Z,28.90
2019-06-20T18:30:41.234Z,28.90
2019-06-20T18:33:10.585Z,28.60
2019-06-20T18:35:40.354Z,28.50
2019-06-20T18:38:09.647Z,28.40
2019-06-20T18:40:39.278Z,28.20
2019-06-20T18:43:08.619Z,28.00
2019-06-20T18:45:38.150Z,27.90
2019-06-20T18:48:07.757Z,27.70
2019-06-20T18:50:37.363Z,27.60
2019-06-20T18:53:06.774Z,27.40
2019-06-20T18:55:36.371Z,27.20
2019-06-20T18:58:06.393Z,27.10
2019-06-20T19:00:35.834Z,27.10
2019-06-20T19:03:05.376Z,26.90
2019-06-20T19:05:34.910Z,26.80
2019-06-20T19:08:05.029Z,26.70
2019-06-20T19:10:34.305Z,26.50
2019-06-20T19:13:03.888Z,26.30
2019-06-20T19:15:33.745Z,26.20
2019-06-20T19:18:03.520Z,26.00
2019-06-20T19:20:32.826Z,25.90
2019-06-20T19:23:02.103Z,25.80
2019-06-20T19:25:31.426Z,25.70
2019-06-20T19:28:20.033Z,25.60
2019-06-20T19:30:51.893Z,25.40
2019-06-20T19:33:21.236Z,25.30
2019-06-20T19:35:50.542Z,25.20
2019-06-20T19:38:19.846Z,25.10
2019-06-20T19:40:50.303Z,25.00
2019-06-20T19:43:19.646Z,24.80
2019-06-20T19:45:48.927Z,24.60
2019-06-20T19:48:18.288Z,24.40
2019-06-20T19:50:47.561Z,24.30
2019-06-20T19:53:17.235Z,24.20
2019-06-20T19:55:47.035Z,24.10
2019-06-20T19:58:16.304Z,24.00
2019-06-20T20:00:45.592Z,24.00
2019-06-20T20:03:14.871Z,23.90
2019-06-20T20:05:45.198Z,23.90
2019-06-20T20:08:14.877Z,23.80
2019-06-20T20:10:51.443Z,23.70
2019-06-20T20:13:21.256Z,23.60
2019-06-20T20:15:50.789Z,23.60
2019-06-20T20:18:20.136Z,23.50
2019-06-20T20:20:49.637Z,23.40
2019-06-20T20:23:19.281Z,23.30
2019-06-20T20:25:48.993Z,23.10
2019-06-20T20:28:18.265Z,23.00
2019-06-20T20:30:47.537Z,22.90
2019-06-20T20:33:17.064Z,22.80
2019-06-20T20:35:46.700Z,22.70
2019-06-20T20:38:16.301Z,22.70
2019-06-20T20:40:45.583Z,22.60
2019-06-20T20:43:14.865Z,22.60
2019-06-20T20:45:44.234Z,22.50
2019-06-20T20:48:13.731Z,22.50
2019-06-20T20:50:43.384Z,22.50
2019-06-20T20:53:12.935Z,22.40
2019-06-20T20:55:42.457Z,22.40
2019-06-20T20:58:12.052Z,22.40
2019-06-20T21:01:16.032Z,22.40
2019-06-20T21:03:45.314Z,22.30
2019-06-20T21:06:14.585Z,22.20
2019-06-20T21:08:43.870Z,22.20
2019-06-20T21:11:13.141Z,22.10
2019-06-20T21:13:42.423Z,22.00
2019-06-20T21:16:11.961Z,22.00
2019-06-20T21:18:41.574Z,21.90
2019-06-20T21:21:11.180Z,21.90
2019-06-20T21:23:40.498Z,21.80
2019-06-20T21:26:09.734Z,21.70
2019-06-20T21:28:39.064Z,21.70
2019-06-20T21:31:08.346Z,21.70
2019-06-20T21:33:37.629Z,21.60
2019-06-20T21:36:08.771Z,21.70
2019-06-20T21:38:38.227Z,21.70
2019-06-20T21:41:07.510Z,21.70
2019-06-20T21:43:36.785Z,21.60
2019-06-20T21:46:07.000Z,21.60
2019-06-20T21:48:36.395Z,21.60
2019-06-20T21:51:06.111Z,21.60
2019-06-20T21:53:35.394Z,21.60
2019-06-20T21:56:05.078Z,21.50
2019-06-20T21:58:34.350Z,21.50
2019-06-20T22:01:04.642Z,21.50
2019-06-20T22:03:34.207Z,21.50
2019-06-20T22:06:03.864Z,21.50
2019-06-20T22:08:33.527Z,21.50
2019-06-20T22:11:02.806Z,21.50
2019-06-20T22:13:32.435Z,21.50
2019-06-20T22:16:01.711Z,21.40
2019-06-20T22:18:31.342Z,21.40
2019-06-20T22:21:00.955Z,21.30
2019-06-20T22:23:30.234Z,21.30
2019-06-20T22:25:59.511Z,21.20
2019-06-20T22:28:29.086Z,21.20
2019-06-20T22:30:58.837Z,21.20
2019-06-20T22:33:28.478Z,21.20
2019-06-20T22:35:57.751Z,21.20
2019-06-20T22:38:27.558Z,21.20
2019-06-20T22:40:56.842Z,21.10
2019-06-20T22:43:26.406Z,21.10
2019-06-20T22:45:55.680Z,21.10
2019-06-20T22:48:25.298Z,21.10
2019-06-20T22:50:54.578Z,21.00
2019-06-20T22:53:24.217Z,21.00
2019-06-20T22:55:53.501Z,21.10
2019-06-20T22:58:23.238Z,21.10
2019-06-20T23:00:52.521Z,21.00
2019-06-20T23:03:21.802Z,21.00
2019-06-20T23:05:51.149Z,21.00
2019-06-20T23:08:20.479Z,21.00
2019-06-20T23:10:49.762Z,21.00
2019-06-20T23:13:19.140Z,21.00
2019-06-20T23:15:48.521Z,21.00
2019-06-20T23:18:17.775Z,21.00
2019-06-20T23:21:03.568Z,21.00
2019-06-20T23:23:19.014Z,21.00
2019-06-20T23:25:49.933Z,20.90
2019-06-20T23:28:19.206Z,20.80
2019-06-20T23:30:48.504Z,20.80
2019-06-20T23:33:17.780Z,20.80
2019-06-20T23:35:47.061Z,20.70
2019-06-20T23:38:16.355Z,20.50
2019-06-20T23:40:45.751Z,20.50
2019-06-20T23:43:15.023Z,20.50
2019-06-20T23:45:44.304Z,20.50
2019-06-20T23:48:13.583Z,20.40
2019-06-20T23:50:43.319Z,20.30
2019-06-20T23:53:23.025Z,20.20
2019-06-20T23:55:52.484Z,20.20
2019-06-20T23:58:21.756Z,20.10
